Nave Neutrino — VRYU3 — position and weather

sailwx.info

Track history (hours):
 
Tides and Currents Weather Stations Pressure Air Temp Water Temp Dewpoint Dewpoint Depression Visibility Wind Speed Wind Dir Waves Ship Positions

Nave Neutrino

Last reported at 2017-Nov-24 23:30 UTC. Time now 2017-Nov-24 23:57 UTC.
Position N 51°57' E 004°08'.

Length 333 m; draft 20.6 m.

Type: Ship (hazmat cat A). MMSI: 477409000.

Date/timePositionNaut miles runAvg speedWind from/ knotsBaromVisibWave heightAir tempDewpointWater temp
2017-Nov-24 23:30N 51°57' E 004°08'0 0.0
2017-Nov-24 23:00N 51°57' E 004°08'0 0.0
2017-Nov-24 22:30N 51°57' E 004°08'0 0.0
2017-Nov-24 22:00N 51°57' E 004°08'0 0.0
2017-Nov-24 21:30N 51°57' E 004°08'0 0.0
2017-Nov-24 21:00N 51°57' E 004°08'0 0.0
2017-Nov-24 20:30N 51°57' E 004°08'0 0.0
2017-Nov-24 20:00N 51°57' E 004°08'0 0.0
2017-Nov-24 19:30N 51°57' E 004°08'0 0.0
2017-Nov-24 19:00N 51°57' E 004°08'0 0.0
2017-Nov-24 18:30N 51°57' E 004°08'0 0.0
2017-Nov-24 18:00N 51°57' E 004°08'0 0.0
2017-Nov-24 17:30N 51°57' E 004°08'0 0.0
2017-Nov-24 17:00N 51°57' E 004°08'0 0.0
2017-Nov-24 16:30N 51°57' E 004°08'0 0.0
2017-Nov-24 16:00N 51°57' E 004°08'0 0.0
2017-Nov-24 15:30N 51°57' E 004°08'0 0.0
2017-Nov-24 15:00N 51°57' E 004°08'0 0.0
2017-Nov-24 14:24N 51°57' E 004°08'0 0.0
2017-Nov-24 14:00N 51°57' E 004°08'0 0.0
2017-Nov-24 13:30N 51°57' E 004°08'0 0.0
2017-Nov-24 12:54N 51°57' E 004°08'0 0.0
2017-Nov-24 12:30N 51°57' E 004°08'0 0.0
2017-Nov-24 11:57N 51°57' E 004°08'0 0.0
2017-Nov-24 11:30N 51°57' E 004°08'0 0.0
2017-Nov-24 11:00N 51°57' E 004°08'0 0.0
2017-Nov-24 10:30N 51°57' E 004°08'0 0.0
2017-Nov-24 10:00N 51°57' E 004°08'0 0.0
2017-Nov-24 09:30N 51°57' E 004°08'0 0.0
2017-Nov-24 09:00N 51°57' E 004°08'0 0.0
2017-Nov-24 08:30N 51°57' E 004°08'0 0.0
2017-Nov-24 08:00N 51°57' E 004°08'0 0.0
2017-Nov-24 07:30N 51°57' E 004°08'0 0.0
2017-Nov-24 07:00N 51°57' E 004°08'0 0.0
2017-Nov-24 06:30N 51°57' E 004°08'0 0.0
2017-Nov-24 06:00N 51°57' E 004°08'0 0.0
2017-Nov-24 05:30N 51°57' E 004°08'0 0.0
2017-Nov-24 05:00N 51°57' E 004°08'0 0.0
2017-Nov-24 04:27N 51°57' E 004°08'0 0.0
2017-Nov-24 04:00N 51°57' E 004°08'0 0.0
2017-Nov-24 03:30N 51°57' E 004°08'0 0.0
2017-Nov-24 02:57N 51°57' E 004°08'0 0.0
2017-Nov-24 02:30N 51°57' E 004°08'0 0.0
2017-Nov-24 01:57N 51°57' E 004°08'0 0.0
2017-Nov-24 01:30N 51°57' E 004°08'0 0.0
2017-Nov-24 01:00N 51°57' E 004°08'0 0.0
2017-Nov-24 00:30N 51°57' E 004°08'0 0.0
2017-Nov-24 00:00N 51°57' E 004°08'0 0.0
2017-Nov-23 23:30N 51°57' E 004°08'0 0.0
2017-Nov-23 23:00N 51°57' E 004°08'0 0.0
2017-Nov-23 22:30N 51°57' E 004°08'0 0.0
2017-Nov-23 22:00N 51°57' E 004°08'0 0.0
2017-Nov-23 21:27N 51°57' E 004°08'0 0.0
2017-Nov-23 21:00N 51°57' E 004°08'0 0.0
2017-Nov-23 20:30N 51°57' E 004°08'0 0.0
2017-Nov-23 19:57N 51°57' E 004°08'0 0.0
2017-Nov-23 19:30N 51°57' E 004°08'0 0.0
2017-Nov-23 19:00N 51°57' E 004°08'0 0.0
2017-Nov-23 18:30N 51°57' E 004°08'0 0.0
2017-Nov-23 18:00N 51°57' E 004°08'0 0.9
2017-Nov-23 17:30N 51°58' E 004°08'1 1.4
2017-Nov-23 17:00N 51°58' E 004°07'2 3.6
2017-Nov-23 16:30N 51°59' E 004°04'3 6.2
2017-Nov-23 16:00N 52°00' E 003°60'4 7.0
2017-Nov-23 15:30N 52°02' E 003°54'4 7.9
2017-Nov-23 15:00N 52°01' E 003°48'5 8.9
2017-Nov-23 14:28N 52°01' E 003°40'4 9.0
2017-Nov-23 14:00N 52°00' E 003°34'35 2.0
2017-Nov-22 20:11N 51°56' E 002°37'3 9.6
2017-Nov-22 19:50N 51°57' E 002°42'4 8.4
2017-Nov-22 19:20N 51°57' E 002°49'  
2017-Nov-19 08:57N 43°27' W 010°30'611.2
2017-Nov-19 08:23N 43°21' W 010°33'5011.4
2017-Nov-19 04:03N 42°32' W 010°48'111.5
2017-Nov-19 03:58N 42°32' W 010°48'3211.6
2017-Nov-19 01:15N 42°01' W 010°57'1311.5
2017-Nov-19 00:09N 41°49' W 011°02'711.4
2017-Nov-18 23:33N 41°42' W 011°04'111.5
2017-Nov-18 23:26N 41°41' W 011°04'511.4
2017-Nov-18 23:00N 41°36' W 011°06'611.7
2017-Nov-18 22:30N 41°30' W 011°08'811.6
2017-Nov-18 21:47N 41°22' W 011°10'311.3
2017-Nov-18 21:30N 41°19' W 011°11'510.8
2017-Nov-18 21:00N 41°14' W 011°12'510.6
2017-Nov-18 20:30N 41°08' W 011°14'610.3
2017-Nov-18 19:53N 41°02' W 011°15'410.4
2017-Nov-18 19:30N 40°58' W 011°16'811.0
2017-Nov-18 18:44N 40°50' W 011°18'311.4
2017-Nov-18 18:26N 40°47' W 011°19'511.5
2017-Nov-18 18:01N 40°42' W 011°19'611.5
2017-Nov-18 17:29N 40°36' W 011°21'911.3
2017-Nov-18 16:42N 40°28' W 011°26'211.6
2017-Nov-18 16:30N 40°26' W 011°27'1211.7
2017-Nov-18 15:26N 40°14' W 011°31'1411.5
2017-Nov-18 14:11N 39°60' W 011°35'211.6
2017-Nov-18 13:59N 39°57' W 011°36'611.8
2017-Nov-18 13:30N 39°52' W 011°37'611.8
2017-Nov-18 13:00N 39°46' W 011°38'1711.7
2017-Nov-18 11:32N 39°29' W 011°43'56511.2
2017-Nov-16 08:58N 30°18' W 014°17'1511.1
2017-Nov-16 07:35N 30°04' W 014°23'111.2
2017-Nov-16 07:30N 30°03' W 014°23'711.2
2017-Nov-16 06:51N 29°55' W 014°25'611.3
2017-Nov-16 06:18N 29°49' W 014°26'411.3
2017-Nov-16 05:59N 29°46' W 014°27'511.2
2017-Nov-16 05:30N 29°41' W 014°29'710.9
2017-Nov-16 04:54N 29°35' W 014°34'411.1
2017-Nov-16 04:30N 29°32' W 014°37'811.2
2017-Nov-16 03:49N 29°27' W 014°44'3510.9
2017-Nov-16 00:39N 29°02' W 015°11'210.9
2017-Nov-16 00:27N 29°01' W 015°13'511.0
2017-Nov-16 00:00N 28°57' W 015°17'611.2
2017-Nov-15 23:30N 28°53' W 015°21'611.3
2017-Nov-15 23:00N 28°49' W 015°26'611.3
2017-Nov-15 22:31N 28°45' W 015°30'511.0
2017-Nov-15 22:01N 28°41' W 015°34'611.2
2017-Nov-15 21:30N 28°37' W 015°39'611.2
2017-Nov-15 21:01N 28°33' W 015°43'611.2
2017-Nov-15 20:30N 28°28' W 015°47'611.1
2017-Nov-15 20:00N 28°24' W 015°51'4 8.5
2017-Nov-15 19:30N 28°23' W 015°56'510.0
2017-Nov-15 19:00N 28°25' W 016°01'5 9.0
2017-Nov-15 18:30N 28°27' W 016°06'4 8.0
2017-Nov-15 18:00N 28°28' W 016°10'2 0.7
2017-Nov-15 15:15N 28°29' W 016°12'0 0.1
2017-Nov-15 15:00N 28°30' W 016°12'0 0.0
2017-Nov-15 14:15N 28°30' W 016°12'0 0.0
2017-Nov-15 13:48N 28°30' W 016°12'0 0.1
2017-Nov-15 13:30N 28°29' W 016°12'0 0.1
2017-Nov-15 10:36N 28°29' W 016°12'0 0.0
2017-Nov-15 03:27N 28°29' W 016°12'0 0.0
2017-Nov-15 02:42N 28°29' W 016°12'0 0.1
2017-Nov-15 02:27N 28°29' W 016°12'  
Track history (hours):
 
Tides and Currents Weather Stations Pressure Air Temp Water Temp Dewpoint Dewpoint Depression Visibility Wind Speed Wind Dir Waves Ship Positions

Nave Neutrino

Last reported at 2017-Nov-24 23:30 UTC. Time now 2017-Nov-24 23:57 UTC.
Position N 51°57' E 004°08'.

Length 333 m; draft 20.6 m.

Type: Ship (hazmat cat A). MMSI: 477409000.

Date/timePositionNaut miles runAvg speedWind from/ knotsBaromVisibWave heightAir tempDewpointWater temp
2017-Nov-24 23:30N 51°57' E 004°08'0 0.0
2017-Nov-24 23:00N 51°57' E 004°08'0 0.0
2017-Nov-24 22:30N 51°57' E 004°08'0 0.0
2017-Nov-24 22:00N 51°57' E 004°08'0 0.0
2017-Nov-24 21:30N 51°57' E 004°08'0 0.0
2017-Nov-24 21:00N 51°57' E 004°08'0 0.0
2017-Nov-24 20:30N 51°57' E 004°08'0 0.0
2017-Nov-24 20:00N 51°57' E 004°08'0 0.0
2017-Nov-24 19:30N 51°57' E 004°08'0 0.0
2017-Nov-24 19:00N 51°57' E 004°08'0 0.0
2017-Nov-24 18:30N 51°57' E 004°08'0 0.0
2017-Nov-24 18:00N 51°57' E 004°08'0 0.0
2017-Nov-24 17:30N 51°57' E 004°08'0 0.0
2017-Nov-24 17:00N 51°57' E 004°08'0 0.0
2017-Nov-24 16:30N 51°57' E 004°08'0 0.0
2017-Nov-24 16:00N 51°57' E 004°08'0 0.0
2017-Nov-24 15:30N 51°57' E 004°08'0 0.0
2017-Nov-24 15:00N 51°57' E 004°08'0 0.0
2017-Nov-24 14:24N 51°57' E 004°08'0 0.0
2017-Nov-24 14:00N 51°57' E 004°08'0 0.0
2017-Nov-24 13:30N 51°57' E 004°08'0 0.0
2017-Nov-24 12:54N 51°57' E 004°08'0 0.0
2017-Nov-24 12:30N 51°57' E 004°08'0 0.0
2017-Nov-24 11:57N 51°57' E 004°08'0 0.0
2017-Nov-24 11:30N 51°57' E 004°08'0 0.0
2017-Nov-24 11:00N 51°57' E 004°08'0 0.0
2017-Nov-24 10:30N 51°57' E 004°08'0 0.0
2017-Nov-24 10:00N 51°57' E 004°08'0 0.0
2017-Nov-24 09:30N 51°57' E 004°08'0 0.0
2017-Nov-24 09:00N 51°57' E 004°08'0 0.0
2017-Nov-24 08:30N 51°57' E 004°08'0 0.0
2017-Nov-24 08:00N 51°57' E 004°08'0 0.0
2017-Nov-24 07:30N 51°57' E 004°08'0 0.0
2017-Nov-24 07:00N 51°57' E 004°08'0 0.0
2017-Nov-24 06:30N 51°57' E 004°08'0 0.0
2017-Nov-24 06:00N 51°57' E 004°08'0 0.0
2017-Nov-24 05:30N 51°57' E 004°08'0 0.0
2017-Nov-24 05:00N 51°57' E 004°08'0 0.0
2017-Nov-24 04:27N 51°57' E 004°08'0 0.0
2017-Nov-24 04:00N 51°57' E 004°08'0 0.0
2017-Nov-24 03:30N 51°57' E 004°08'0 0.0
2017-Nov-24 02:57N 51°57' E 004°08'0 0.0
2017-Nov-24 02:30N 51°57' E 004°08'0 0.0
2017-Nov-24 01:57N 51°57' E 004°08'0 0.0
2017-Nov-24 01:30N 51°57' E 004°08'0 0.0
2017-Nov-24 01:00N 51°57' E 004°08'0 0.0
2017-Nov-24 00:30N 51°57' E 004°08'0 0.0
2017-Nov-24 00:00N 51°57' E 004°08'0 0.0
2017-Nov-23 23:30N 51°57' E 004°08'0 0.0
2017-Nov-23 23:00N 51°57' E 004°08'0 0.0
2017-Nov-23 22:30N 51°57' E 004°08'0 0.0
2017-Nov-23 22:00N 51°57' E 004°08'0 0.0
2017-Nov-23 21:27N 51°57' E 004°08'0 0.0
2017-Nov-23 21:00N 51°57' E 004°08'0 0.0
2017-Nov-23 20:30N 51°57' E 004°08'0 0.0
2017-Nov-23 19:57N 51°57' E 004°08'0 0.0
2017-Nov-23 19:30N 51°57' E 004°08'0 0.0
2017-Nov-23 19:00N 51°57' E 004°08'0 0.0
2017-Nov-23 18:30N 51°57' E 004°08'0 0.0
2017-Nov-23 18:00N 51°57' E 004°08'0 0.9
2017-Nov-23 17:30N 51°58' E 004°08'1 1.4
2017-Nov-23 17:00N 51°58' E 004°07'2 3.6
2017-Nov-23 16:30N 51°59' E 004°04'3 6.2
2017-Nov-23 16:00N 52°00' E 003°60'4 7.0
2017-Nov-23 15:30N 52°02' E 003°54'4 7.9
2017-Nov-23 15:00N 52°01' E 003°48'5 8.9
2017-Nov-23 14:28N 52°01' E 003°40'4 9.0
2017-Nov-23 14:00N 52°00' E 003°34'35 2.0
2017-Nov-22 20:11N 51°56' E 002°37'3 9.6
2017-Nov-22 19:50N 51°57' E 002°42'4 8.4
2017-Nov-22 19:20N 51°57' E 002°49'  
2017-Nov-19 08:57N 43°27' W 010°30'611.2
2017-Nov-19 08:23N 43°21' W 010°33'5011.4
2017-Nov-19 04:03N 42°32' W 010°48'111.5
2017-Nov-19 03:58N 42°32' W 010°48'3211.6
2017-Nov-19 01:15N 42°01' W 010°57'1311.5
2017-Nov-19 00:09N 41°49' W 011°02'711.4
2017-Nov-18 23:33N 41°42' W 011°04'111.5
2017-Nov-18 23:26N 41°41' W 011°04'511.4
2017-Nov-18 23:00N 41°36' W 011°06'611.7
2017-Nov-18 22:30N 41°30' W 011°08'811.6
2017-Nov-18 21:47N 41°22' W 011°10'311.3
2017-Nov-18 21:30N 41°19' W 011°11'510.8
2017-Nov-18 21:00N 41°14' W 011°12'510.6
2017-Nov-18 20:30N 41°08' W 011°14'610.3
2017-Nov-18 19:53N 41°02' W 011°15'410.4
2017-Nov-18 19:30N 40°58' W 011°16'811.0
2017-Nov-18 18:44N 40°50' W 011°18'311.4
2017-Nov-18 18:26N 40°47' W 011°19'511.5
2017-Nov-18 18:01N 40°42' W 011°19'611.5
2017-Nov-18 17:29N 40°36' W 011°21'911.3
2017-Nov-18 16:42N 40°28' W 011°26'211.6
2017-Nov-18 16:30N 40°26' W 011°27'1211.7
2017-Nov-18 15:26N 40°14' W 011°31'1411.5
2017-Nov-18 14:11N 39°60' W 011°35'211.6
2017-Nov-18 13:59N 39°57' W 011°36'611.8
2017-Nov-18 13:30N 39°52' W 011°37'611.8
2017-Nov-18 13:00N 39°46' W 011°38'1711.7
2017-Nov-18 11:32N 39°29' W 011°43'56511.2
2017-Nov-16 08:58N 30°18' W 014°17'1511.1
2017-Nov-16 07:35N 30°04' W 014°23'111.2
2017-Nov-16 07:30N 30°03' W 014°23'711.2
2017-Nov-16 06:51N 29°55' W 014°25'611.3
2017-Nov-16 06:18N 29°49' W 014°26'411.3
2017-Nov-16 05:59N 29°46' W 014°27'511.2
2017-Nov-16 05:30N 29°41' W 014°29'710.9
2017-Nov-16 04:54N 29°35' W 014°34'411.1
2017-Nov-16 04:30N 29°32' W 014°37'811.2
2017-Nov-16 03:49N 29°27' W 014°44'3510.9
2017-Nov-16 00:39N 29°02' W 015°11'210.9
2017-Nov-16 00:27N 29°01' W 015°13'511.0
2017-Nov-16 00:00N 28°57' W 015°17'611.2
2017-Nov-15 23:30N 28°53' W 015°21'611.3
2017-Nov-15 23:00N 28°49' W 015°26'611.3
2017-Nov-15 22:31N 28°45' W 015°30'511.0
2017-Nov-15 22:01N 28°41' W 015°34'611.2
2017-Nov-15 21:30N 28°37' W 015°39'611.2
2017-Nov-15 21:01N 28°33' W 015°43'611.2
2017-Nov-15 20:30N 28°28' W 015°47'611.1
2017-Nov-15 20:00N 28°24' W 015°51'4 8.5
2017-Nov-15 19:30N 28°23' W 015°56'510.0
2017-Nov-15 19:00N 28°25' W 016°01'5 9.0
2017-Nov-15 18:30N 28°27' W 016°06'4 8.0
2017-Nov-15 18:00N 28°28' W 016°10'2 0.7
2017-Nov-15 15:15N 28°29' W 016°12'0 0.1
2017-Nov-15 15:00N 28°30' W 016°12'0 0.0
2017-Nov-15 14:15N 28°30' W 016°12'0 0.0
2017-Nov-15 13:48N 28°30' W 016°12'0 0.1
2017-Nov-15 13:30N 28°29' W 016°12'0 0.1
2017-Nov-15 10:36N 28°29' W 016°12'0 0.0
2017-Nov-15 03:27N 28°29' W 016°12'0 0.0
2017-Nov-15 02:42N 28°29' W 016°12'0 0.1
2017-Nov-15 02:27N 28°29' W 016°12'  

Dump ship's entire track history